sensor_id;sensor_type;location;lat;lon;timestamp;temperature;humidity
47350;DHT22;33088;51.982;5.872;2022-12-10T00:01:30;-1.80;99.90
47350;DHT22;33088;51.982;5.872;2022-12-10T00:03:56;-1.90;99.90
47350;DHT22;33088;51.982;5.872;2022-12-10T00:06:24;-1.90;99.90
47350;DHT22;33088;51.982;5.872;2022-12-10T00:08:50;-1.90;99.90
47350;DHT22;33088;51.982;5.872;2022-12-10T00:11:18;-1.90;99.90
47350;DHT22;33088;51.982;5.872;2022-12-10T00:13:45;-1.90;99.90
47350;DHT22;33088;51.982;5.872;2022-12-10T00:16:14;-1.90;99.90
47350;DHT22;33088;51.982;5.872;2022-12-10T00:18:40;-1.90;99.90
47350;DHT22;33088;51.982;5.872;2022-12-10T00:21:13;-1.90;99.90
47350;DHT22;33088;51.982;5.872;2022-12-10T00:23:40;-1.90;99.90
47350;DHT22;33088;51.982;5.872;2022-12-10T00:26:27;-1.80;99.90
47350;DHT22;33088;51.982;5.872;2022-12-10T00:28:53;-1.90;99.90
47350;DHT22;33088;51.982;5.872;2022-12-10T00:31:22;-1.90;99.90
47350;DHT22;33088;51.982;5.872;2022-12-10T00:33:48;-1.90;99.90
47350;DHT22;33088;51.982;5.872;2022-12-10T00:36:17;-1.90;99.90
47350;DHT22;33088;51.982;5.872;2022-12-10T00:38:44;-1.90;99.90
47350;DHT22;33088;51.982;5.872;2022-12-10T00:41:11;-1.90;99.90
47350;DHT22;33088;51.982;5.872;2022-12-10T00:43:39;-1.90;99.90
47350;DHT22;33088;51.982;5.872;2022-12-10T00:46:05;-1.90;99.90
47350;DHT22;33088;51.982;5.872;2022-12-10T00:48:31;-1.90;99.90
47350;DHT22;33088;51.982;5.872;2022-12-10T00:51:00;-1.90;99.90
47350;DHT22;33088;51.982;5.872;2022-12-10T00:53:27;-2.00;99.90
47350;DHT22;33088;51.982;5.872;2022-12-10T00:55:54;-2.00;99.90
47350;DHT22;33088;51.982;5.872;2022-12-10T00:58:20;-2.00;99.90
47350;DHT22;33088;51.982;5.872;2022-12-10T01:00:47;-2.00;99.90
47350;DHT22;33088;51.982;5.872;2022-12-10T01:03:13;-2.00;99.90
47350;DHT22;33088;51.982;5.872;2022-12-10T01:05:39;-2.00;99.90
47350;DHT22;33088;51.982;5.872;2022-12-10T01:08:05;-2.00;99.90
47350;DHT22;33088;51.982;5.872;2022-12-10T01:10:31;-1.90;99.90
47350;DHT22;33088;51.982;5.872;2022-12-10T01:12:57;-2.00;99.90
47350;DHT22;33088;51.982;5.872;2022-12-10T01:15:23;-2.00;99.90
47350;DHT22;33088;51.982;5.872;2022-12-10T01:17:49;-2.10;99.90
47350;DHT22;33088;51.982;5.872;2022-12-10T01:20:14;-2.10;99.90
47350;DHT22;33088;51.982;5.872;2022-12-10T01:22:40;-2.10;99.90
47350;DHT22;33088;51.982;5.872;2022-12-10T01:25:06;-2.10;99.90
47350;DHT22;33088;51.982;5.872;2022-12-10T01:27:32;-2.10;99.90
47350;DHT22;33088;51.982;5.872;2022-12-10T01:29:58;-2.20;99.90
47350;DHT22;33088;51.982;5.872;2022-12-10T01:32:23;-2.10;99.90
47350;DHT22;33088;51.982;5.872;2022-12-10T01:34:49;-2.20;99.90
47350;DHT22;33088;51.982;5.872;2022-12-10T01:37:15;-2.20;99.90
47350;DHT22;33088;51.982;5.872;2022-12-10T01:39:41;-2.30;99.90
47350;DHT22;33088;51.982;5.872;2022-12-10T01:42:09;-2.40;99.90
47350;DHT22;33088;51.982;5.872;2022-12-10T01:47:09;-2.30;99.90
47350;DHT22;33088;51.982;5.872;2022-12-10T01:49:37;-2.30;99.90
47350;DHT22;33088;51.982;5.872;2022-12-10T01:52:06;-2.20;99.90
47350;DHT22;33088;51.982;5.872;2022-12-10T01:54:35;-2.30;99.90
47350;DHT22;33088;51.982;5.872;2022-12-10T01:59:38;-2.40;99.90
47350;DHT22;33088;51.982;5.872;2022-12-10T02:03:12;-2.40;99.90
47350;DHT22;33088;51.982;5.872;2022-12-10T02:05:26;-2.40;99.90
47350;DHT22;33088;51.982;5.872;2022-12-10T02:08:28;-2.50;99.90
47350;DHT22;33088;51.982;5.872;2022-12-10T02:13:57;-2.50;99.90
47350;DHT22;33088;51.982;5.872;2022-12-10T02:16:30;-2.50;99.90
47350;DHT22;33088;51.982;5.872;2022-12-10T02:19:07;-2.50;99.90
47350;DHT22;33088;51.982;5.872;2022-12-10T02:21:41;-2.40;99.90
47350;DHT22;33088;51.982;5.872;2022-12-10T02:24:13;-2.40;99.90
47350;DHT22;33088;51.982;5.872;2022-12-10T02:29:23;-2.50;99.90
47350;DHT22;33088;51.982;5.872;2022-12-10T02:31:56;-2.50;99.90
47350;DHT22;33088;51.982;5.872;2022-12-10T02:34:24;-2.50;99.90
47350;DHT22;33088;51.982;5.872;2022-12-10T02:36:53;-2.60;99.90
47350;DHT22;33088;51.982;5.872;2022-12-10T02:39:24;-2.60;99.90
47350;DHT22;33088;51.982;5.872;2022-12-10T02:41:56;-2.60;99.90
47350;DHT22;33088;51.982;5.872;2022-12-10T02:44:25;-2.60;99.90
47350;DHT22;33088;51.982;5.872;2022-12-10T02:46:56;-2.60;99.90
47350;DHT22;33088;51.982;5.872;2022-12-10T02:49:28;-2.50;99.90
47350;DHT22;33088;51.982;5.872;2022-12-10T02:51:55;-2.50;99.90
47350;DHT22;33088;51.982;5.872;2022-12-10T02:54:45;-2.50;99.90
47350;DHT22;33088;51.982;5.872;2022-12-10T02:57:31;-2.60;99.90
47350;DHT22;33088;51.982;5.872;2022-12-10T03:00:14;-2.60;99.90
47350;DHT22;33088;51.982;5.872;2022-12-10T03:05:58;-2.60;99.90
47350;DHT22;33088;51.982;5.872;2022-12-10T03:08:36;-2.60;99.90
47350;DHT22;33088;51.982;5.872;2022-12-10T03:11:14;-2.50;99.90
47350;DHT22;33088;51.982;5.872;2022-12-10T03:16:11;-2.50;99.90
47350;DHT22;33088;51.982;5.872;2022-12-10T03:18:38;-2.50;99.90
47350;DHT22;33088;51.982;5.872;2022-12-10T03:21:06;-2.60;99.90
47350;DHT22;33088;51.982;5.872;2022-12-10T03:23:38;-2.60;99.90
47350;DHT22;33088;51.982;5.872;2022-12-10T03:26:07;-2.60;99.90
47350;DHT22;33088;51.982;5.872;2022-12-10T03:28:38;-2.70;99.90
47350;DHT22;33088;51.982;5.872;2022-12-10T03:31:07;-2.60;99.90
47350;DHT22;33088;51.982;5.872;2022-12-10T03:33:34;-2.60;99.90
47350;DHT22;33088;51.982;5.872;2022-12-10T03:36:00;-2.60;99.90
47350;DHT22;33088;51.982;5.872;2022-12-10T03:38:26;-2.60;99.90
47350;DHT22;33088;51.982;5.872;2022-12-10T03:40:51;-2.50;99.90
47350;DHT22;33088;51.982;5.872;2022-12-10T03:43:17;-2.50;99.90
47350;DHT22;33088;51.982;5.872;2022-12-10T03:45:43;-2.70;99.90
47350;DHT22;33088;51.982;5.872;2022-12-10T03:48:08;-2.70;99.90
47350;DHT22;33088;51.982;5.872;2022-12-10T03:50:34;-2.70;99.90
47350;DHT22;33088;51.982;5.872;2022-12-10T03:52:59;-2.70;99.90
47350;DHT22;33088;51.982;5.872;2022-12-10T03:55:25;-2.70;99.90
47350;DHT22;33088;51.982;5.872;2022-12-10T03:57:51;-2.70;99.90
47350;DHT22;33088;51.982;5.872;2022-12-10T04:00:17;-2.60;99.90
47350;DHT22;33088;51.982;5.872;2022-12-10T04:02:42;-2.60;99.90
47350;DHT22;33088;51.982;5.872;2022-12-10T04:05:08;-2.50;99.90
47350;DHT22;33088;51.982;5.872;2022-12-10T04:07:34;-2.50;99.90
47350;DHT22;33088;51.982;5.872;2022-12-10T04:10:00;-2.50;99.90
47350;DHT22;33088;51.982;5.872;2022-12-10T04:12:26;-2.40;99.90
47350;DHT22;33088;51.982;5.872;2022-12-10T04:14:51;-2.40;99.90
47350;DHT22;33088;51.982;5.872;2022-12-10T04:17:35;-2.40;99.90
47350;DHT22;33088;51.982;5.872;2022-12-10T04:20:01;-2.40;99.90
47350;DHT22;33088;51.982;5.872;2022-12-10T04:22:27;-2.30;99.90
47350;DHT22;33088;51.982;5.872;2022-12-10T04:25:12;-2.20;99.90
47350;DHT22;33088;51.982;5.872;2022-12-10T04:27:56;-2.10;99.90
47350;DHT22;33088;51.982;5.872;2022-12-10T04:30:22;-2.10;99.90
47350;DHT22;33088;51.982;5.872;2022-12-10T04:32:48;-2.00;99.90
47350;DHT22;33088;51.982;5.872;2022-12-10T04:35:14;-2.10;99.90
47350;DHT22;33088;51.982;5.872;2022-12-10T04:37:42;-2.10;99.90
47350;DHT22;33088;51.982;5.872;2022-12-10T04:40:09;-2.00;99.90
47350;DHT22;33088;51.982;5.872;2022-12-10T04:42:34;-2.00;99.90
47350;DHT22;33088;51.982;5.872;2022-12-10T04:45:00;-1.90;99.90
47350;DHT22;33088;51.982;5.872;2022-12-10T04:47:26;-1.90;99.90
47350;DHT22;33088;51.982;5.872;2022-12-10T04:49:51;-1.90;99.90
47350;DHT22;33088;51.982;5.872;2022-12-10T04:52:17;-1.80;99.90
47350;DHT22;33088;51.982;5.872;2022-12-10T04:54:43;-1.90;99.90
47350;DHT22;33088;51.982;5.872;2022-12-10T04:57:10;-1.90;99.90
47350;DHT22;33088;51.982;5.872;2022-12-10T04:59:36;-1.90;99.90
47350;DHT22;33088;51.982;5.872;2022-12-10T05:02:03;-1.90;99.90
47350;DHT22;33088;51.982;5.872;2022-12-10T05:04:29;-1.90;99.90
47350;DHT22;33088;51.982;5.872;2022-12-10T05:06:55;-1.80;99.90
47350;DHT22;33088;51.982;5.872;2022-12-10T05:09:20;-1.80;99.90
47350;DHT22;33088;51.982;5.872;2022-12-10T05:11:46;-1.80;99.90
47350;DHT22;33088;51.982;5.872;2022-12-10T05:14:13;-1.80;99.90
47350;DHT22;33088;51.982;5.872;2022-12-10T05:16:39;-1.80;99.90
47350;DHT22;33088;51.982;5.872;2022-12-10T05:19:05;-1.80;99.90
47350;DHT22;33088;51.982;5.872;2022-12-10T05:21:31;-1.80;99.90
47350;DHT22;33088;51.982;5.872;2022-12-10T05:24:16;-1.80;99.90
47350;DHT22;33088;51.982;5.872;2022-12-10T05:26:42;-1.80;99.90
47350;DHT22;33088;51.982;5.872;2022-12-10T05:29:08;-1.80;99.90
47350;DHT22;33088;51.982;5.872;2022-12-10T05:31:34;-1.70;99.90
47350;DHT22;33088;51.982;5.872;2022-12-10T05:34:00;-1.80;99.90
47350;DHT22;33088;51.982;5.872;2022-12-10T05:36:28;-1.90;99.90
47350;DHT22;33088;51.982;5.872;2022-12-10T05:38:55;-1.90;99.90
47350;DHT22;33088;51.982;5.872;2022-12-10T05:41:27;-2.00;99.90
47350;DHT22;33088;51.982;5.872;2022-12-10T05:43:56;-2.00;99.90
47350;DHT22;33088;51.982;5.872;2022-12-10T05:46:27;-1.90;99.90
47350;DHT22;33088;51.982;5.872;2022-12-10T05:48:53;-2.00;99.90
47350;DHT22;33088;51.982;5.872;2022-12-10T05:51:21;-2.00;99.90
47350;DHT22;33088;51.982;5.872;2022-12-10T05:53:47;-2.00;99.90
47350;DHT22;33088;51.982;5.872;2022-12-10T05:56:16;-2.00;99.90
47350;DHT22;33088;51.982;5.872;2022-12-10T05:58:45;-2.00;99.90
47350;DHT22;33088;51.982;5.872;2022-12-10T06:01:16;-2.00;99.90
47350;DHT22;33088;51.982;5.872;2022-12-10T06:03:42;-1.80;99.90
47350;DHT22;33088;51.982;5.872;2022-12-10T06:06:14;-1.90;99.90
47350;DHT22;33088;51.982;5.872;2022-12-10T06:08:53;-2.00;99.90
47350;DHT22;33088;51.982;5.872;2022-12-10T06:11:20;-2.00;99.90
47350;DHT22;33088;51.982;5.872;2022-12-10T06:13:46;-2.00;99.90
47350;DHT22;33088;51.982;5.872;2022-12-10T06:16:13;-1.90;99.90
47350;DHT22;33088;51.982;5.872;2022-12-10T06:18:39;-1.90;99.90
47350;DHT22;33088;51.982;5.872;2022-12-10T06:21:06;-1.90;99.90
47350;DHT22;33088;51.982;5.872;2022-12-10T06:23:36;-1.90;99.90
47350;DHT22;33088;51.982;5.872;2022-12-10T06:26:11;-2.00;99.90
47350;DHT22;33088;51.982;5.872;2022-12-10T06:28:39;-2.00;99.90
47350;DHT22;33088;51.982;5.872;2022-12-10T06:31:05;-2.00;99.90
47350;DHT22;33088;51.982;5.872;2022-12-10T06:33:31;-2.00;99.90
47350;DHT22;33088;51.982;5.872;2022-12-10T06:35:57;-2.00;99.90
47350;DHT22;33088;51.982;5.872;2022-12-10T06:38:24;-2.00;99.90
47350;DHT22;33088;51.982;5.872;2022-12-10T06:40:50;-2.00;99.90
47350;DHT22;33088;51.982;5.872;2022-12-10T06:43:15;-2.20;99.90
47350;DHT22;33088;51.982;5.872;2022-12-10T06:45:42;-2.20;99.90
47350;DHT22;33088;51.982;5.872;2022-12-10T06:48:08;-2.20;99.90
47350;DHT22;33088;51.982;5.872;2022-12-10T06:50:34;-2.10;99.90
47350;DHT22;33088;51.982;5.872;2022-12-10T06:53:00;-2.10;99.90
47350;DHT22;33088;51.982;5.872;2022-12-10T06:55:26;-2.20;99.90
47350;DHT22;33088;51.982;5.872;2022-12-10T06:57:52;-2.10;99.90
47350;DHT22;33088;51.982;5.872;2022-12-10T07:00:19;-2.20;99.90
47350;DHT22;33088;51.982;5.872;2022-12-10T07:02:45;-2.30;99.90
47350;DHT22;33088;51.982;5.872;2022-12-10T07:05:11;-2.20;99.90
47350;DHT22;33088;51.982;5.872;2022-12-10T07:07:37;-2.20;99.90
47350;DHT22;33088;51.982;5.872;2022-12-10T07:10:03;-2.20;99.90
47350;DHT22;33088;51.982;5.872;2022-12-10T07:12:29;-2.30;99.90
47350;DHT22;33088;51.982;5.872;2022-12-10T07:14:55;-2.40;99.90
47350;DHT22;33088;51.982;5.872;2022-12-10T07:17:20;-2.40;99.90
47350;DHT22;33088;51.982;5.872;2022-12-10T07:19:46;-2.40;99.90
47350;DHT22;33088;51.982;5.872;2022-12-10T07:22:12;-2.30;99.90
47350;DHT22;33088;51.982;5.872;2022-12-10T07:24:37;-2.30;99.90
47350;DHT22;33088;51.982;5.872;2022-12-10T07:27:07;-2.30;99.90
47350;DHT22;33088;51.982;5.872;2022-12-10T07:29:32;-2.30;99.90
47350;DHT22;33088;51.982;5.872;2022-12-10T07:31:58;-2.20;99.90
47350;DHT22;33088;51.982;5.872;2022-12-10T07:34:24;-2.20;99.90
47350;DHT22;33088;51.982;5.872;2022-12-10T07:36:49;-2.30;99.90
47350;DHT22;33088;51.982;5.872;2022-12-10T07:39:15;-2.30;99.90
47350;DHT22;33088;51.982;5.872;2022-12-10T07:41:50;-2.40;99.90
47350;DHT22;33088;51.982;5.872;2022-12-10T07:44:17;-2.40;99.90
47350;DHT22;33088;51.982;5.872;2022-12-10T07:46:44;-2.30;99.90
47350;DHT22;33088;51.982;5.872;2022-12-10T07:49:09;-2.30;99.90
47350;DHT22;33088;51.982;5.872;2022-12-10T07:51:35;-2.20;99.90
47350;DHT22;33088;51.982;5.872;2022-12-10T07:54:01;-2.20;99.90
47350;DHT22;33088;51.982;5.872;2022-12-10T07:56:27;-2.10;99.90
47350;DHT22;33088;51.982;5.872;2022-12-10T07:58:53;-2.00;99.90
47350;DHT22;33088;51.982;5.872;2022-12-10T08:01:21;-1.90;99.90
47350;DHT22;33088;51.982;5.872;2022-12-10T08:03:48;-1.90;99.90
47350;DHT22;33088;51.982;5.872;2022-12-10T08:06:17;-1.90;99.90
47350;DHT22;33088;51.982;5.872;2022-12-10T08:08:44;-2.00;99.90
47350;DHT22;33088;51.982;5.872;2022-12-10T08:11:11;-1.90;99.90
47350;DHT22;33088;51.982;5.872;2022-12-10T08:13:37;-2.00;99.90
47350;DHT22;33088;51.982;5.872;2022-12-10T08:16:06;-2.00;99.90
47350;DHT22;33088;51.982;5.872;2022-12-10T08:18:33;-1.90;99.90
47350;DHT22;33088;51.982;5.872;2022-12-10T08:21:04;-1.90;99.90
47350;DHT22;33088;51.982;5.872;2022-12-10T08:23:30;-1.80;99.90
47350;DHT22;33088;51.982;5.872;2022-12-10T08:25:56;-1.80;99.90
47350;DHT22;33088;51.982;5.872;2022-12-10T08:28:21;-1.80;99.90
47350;DHT22;33088;51.982;5.872;2022-12-10T08:30:48;-1.80;99.90
47350;DHT22;33088;51.982;5.872;2022-12-10T08:33:14;-1.80;99.90
47350;DHT22;33088;51.982;5.872;2022-12-10T08:35:39;-1.80;99.90
47350;DHT22;33088;51.982;5.872;2022-12-10T08:38:05;-1.70;99.90
47350;DHT22;33088;51.982;5.872;2022-12-10T08:40:31;-1.80;99.90
47350;DHT22;33088;51.982;5.872;2022-12-10T08:42:56;-1.80;99.90
47350;DHT22;33088;51.982;5.872;2022-12-10T08:45:22;-1.80;99.90
47350;DHT22;33088;51.982;5.872;2022-12-10T08:47:48;-1.80;99.90
47350;DHT22;33088;51.982;5.872;2022-12-10T08:50:14;-1.80;99.90
47350;DHT22;33088;51.982;5.872;2022-12-10T08:52:40;-1.90;99.90
47350;DHT22;33088;51.982;5.872;2022-12-10T08:55:06;-1.80;99.90
47350;DHT22;33088;51.982;5.872;2022-12-10T08:57:31;-1.70;99.90
47350;DHT22;33088;51.982;5.872;2022-12-10T08:59:57;-1.70;99.90
47350;DHT22;33088;51.982;5.872;2022-12-10T09:02:23;-1.70;99.90
47350;DHT22;33088;51.982;5.872;2022-12-10T09:04:50;-1.60;99.90
47350;DHT22;33088;51.982;5.872;2022-12-10T09:07:16;-1.50;99.90
47350;DHT22;33088;51.982;5.872;2022-12-10T09:09:42;-1.50;99.90
47350;DHT22;33088;51.982;5.872;2022-12-10T09:12:07;-1.40;99.90
47350;DHT22;33088;51.982;5.872;2022-12-10T09:14:33;-1.40;99.90
47350;DHT22;33088;51.982;5.872;2022-12-10T09:16:59;-1.40;99.90
47350;DHT22;33088;51.982;5.872;2022-12-10T09:19:24;-1.40;99.90
47350;DHT22;33088;51.982;5.872;2022-12-10T09:21:50;-1.30;99.90
47350;DHT22;33088;51.982;5.872;2022-12-10T09:24:16;-1.40;99.90
47350;DHT22;33088;51.982;5.872;2022-12-10T09:26:41;-1.40;99.90
47350;DHT22;33088;51.982;5.872;2022-12-10T09:29:07;-1.40;99.90
47350;DHT22;33088;51.982;5.872;2022-12-10T09:31:33;-1.40;99.90
47350;DHT22;33088;51.982;5.872;2022-12-10T09:33:58;-1.40;99.90
47350;DHT22;33088;51.982;5.872;2022-12-10T09:36:24;-1.50;99.90
47350;DHT22;33088;51.982;5.872;2022-12-10T09:38:50;-1.50;99.90
47350;DHT22;33088;51.982;5.872;2022-12-10T09:44:27;-1.50;99.90
47350;DHT22;33088;51.982;5.872;2022-12-10T09:46:57;-1.50;99.90
47350;DHT22;33088;51.982;5.872;2022-12-10T09:51:49;-1.50;99.90
47350;DHT22;33088;51.982;5.872;2022-12-10T09:54:26;-1.50;99.90
47350;DHT22;33088;51.982;5.872;2022-12-10T09:56:55;-1.40;99.90
47350;DHT22;33088;51.982;5.872;2022-12-10T09:59:43;-1.40;99.90
47350;DHT22;33088;51.982;5.872;2022-12-10T10:04:35;-1.30;99.90
47350;DHT22;33088;51.982;5.872;2022-12-10T10:07:00;-1.10;99.90
47350;DHT22;33088;51.982;5.872;2022-12-10T10:09:26;-1.20;99.90
47350;DHT22;33088;51.982;5.872;2022-12-10T10:11:52;-1.20;99.90
47350;DHT22;33088;51.982;5.872;2022-12-10T10:14:25;-1.20;99.90
47350;DHT22;33088;51.982;5.872;2022-12-10T10:16:56;-1.10;99.90
47350;DHT22;33088;51.982;5.872;2022-12-10T10:19:28;-1.00;99.90
47350;DHT22;33088;51.982;5.872;2022-12-10T10:21:54;-1.00;99.90
47350;DHT22;33088;51.982;5.872;2022-12-10T10:24:23;-1.00;99.90
47350;DHT22;33088;51.982;5.872;2022-12-10T10:26:53;-1.20;99.90
47350;DHT22;33088;51.982;5.872;2022-12-10T10:29:22;-1.10;99.90
47350;DHT22;33088;51.982;5.872;2022-12-10T10:32:15;-1.00;99.90
47350;DHT22;33088;51.982;5.872;2022-12-10T10:34:42;-0.90;99.90
47350;DHT22;33088;51.982;5.872;2022-12-10T10:37:16;-0.80;99.90
47350;DHT22;33088;51.982;5.872;2022-12-10T10:39:48;-0.90;99.90
47350;DHT22;33088;51.982;5.872;2022-12-10T10:42:25;-0.80;99.90
47350;DHT22;33088;51.982;5.872;2022-12-10T10:44:52;-0.80;99.90
47350;DHT22;33088;51.982;5.872;2022-12-10T10:47:30;-0.90;99.90
47350;DHT22;33088;51.982;5.872;2022-12-10T10:49:55;-0.90;99.90
47350;DHT22;33088;51.982;5.872;2022-12-10T10:52:22;-0.90;99.90
47350;DHT22;33088;51.982;5.872;2022-12-10T10:54:48;-1.00;99.90
47350;DHT22;33088;51.982;5.872;2022-12-10T10:57:24;-1.00;99.90
47350;DHT22;33088;51.982;5.872;2022-12-10T11:00:03;-1.00;99.90
47350;DHT22;33088;51.982;5.872;2022-12-10T11:02:37;-1.10;99.90
47350;DHT22;33088;51.982;5.872;2022-12-10T11:05:26;-1.00;99.90
47350;DHT22;33088;51.982;5.872;2022-12-10T11:08:01;-1.00;99.90
47350;DHT22;33088;51.982;5.872;2022-12-10T11:10:29;-1.00;99.90
47350;DHT22;33088;51.982;5.872;2022-12-10T11:13:24;-0.80;99.90
47350;DHT22;33088;51.982;5.872;2022-12-10T11:16:11;-0.70;99.90
47350;DHT22;33088;51.982;5.872;2022-12-10T11:18:51;-0.70;99.90
47350;DHT22;33088;51.982;5.872;2022-12-10T11:21:19;-0.70;99.90
47350;DHT22;33088;51.982;5.872;2022-12-10T11:23:49;-0.70;99.90
47350;DHT22;33088;51.982;5.872;2022-12-10T11:31:56;-0.50;99.90
47350;DHT22;33088;51.982;5.872;2022-12-10T11:34:51;-0.40;99.90
47350;DHT22;33088;51.982;5.872;2022-12-10T11:51:43;-0.40;99.90
47350;DHT22;33088;51.982;5.872;2022-12-10T12:11:20;-0.70;99.90
47350;DHT22;33088;51.982;5.872;2022-12-10T12:13:56;-0.60;99.90
47350;DHT22;33088;51.982;5.872;2022-12-10T12:16:36;-0.60;99.90
47350;DHT22;33088;51.982;5.872;2022-12-10T12:19:13;-0.60;99.90
47350;DHT22;33088;51.982;5.872;2022-12-10T12:21:40;-0.60;99.90
47350;DHT22;33088;51.982;5.872;2022-12-10T12:24:21;-0.70;99.90
47350;DHT22;33088;51.982;5.872;2022-12-10T12:26:52;-0.60;99.90
47350;DHT22;33088;51.982;5.872;2022-12-10T12:29:33;-0.60;99.90
47350;DHT22;33088;51.982;5.872;2022-12-10T12:32:37;-0.50;99.90
47350;DHT22;33088;51.982;5.872;2022-12-10T12:35:18;-0.40;99.90
47350;DHT22;33088;51.982;5.872;2022-12-10T12:37:54;-0.40;99.90
47350;DHT22;33088;51.982;5.872;2022-12-10T12:42:49;-0.40;99.90
47350;DHT22;33088;51.982;5.872;2022-12-10T12:53:22;-0.60;99.90
47350;DHT22;33088;51.982;5.872;2022-12-10T12:55:59;-0.60;99.90
47350;DHT22;33088;51.982;5.872;2022-12-10T12:59:01;-0.70;99.90
47350;DHT22;33088;51.982;5.872;2022-12-10T13:01:42;-0.60;99.90
47350;DHT22;33088;51.982;5.872;2022-12-10T13:04:09;-0.50;99.90
47350;DHT22;33088;51.982;5.872;2022-12-10T13:06:38;-0.50;99.90
47350;DHT22;33088;51.982;5.872;2022-12-10T13:11:45;-0.40;99.90
47350;DHT22;33088;51.982;5.872;2022-12-10T13:14:16;-0.50;99.90
47350;DHT22;33088;51.982;5.872;2022-12-10T13:22:00;-0.50;99.90
47350;DHT22;33088;51.982;5.872;2022-12-10T13:27:30;-0.70;99.90
47350;DHT22;33088;51.982;5.872;2022-12-10T13:32:54;-0.70;99.90
47350;DHT22;33088;51.982;5.872;2022-12-10T13:35:31;-0.70;99.90
47350;DHT22;33088;51.982;5.872;2022-12-10T13:38:05;-0.70;99.90
47350;DHT22;33088;51.982;5.872;2022-12-10T13:43:38;-0.70;99.90
47350;DHT22;33088;51.982;5.872;2022-12-10T13:48:53;-0.60;99.90
47350;DHT22;33088;51.982;5.872;2022-12-10T13:51:47;-0.60;99.90
47350;DHT22;33088;51.982;5.872;2022-12-10T13:54:27;-0.60;99.90
47350;DHT22;33088;51.982;5.872;2022-12-10T14:03:01;-0.50;99.90
47350;DHT22;33088;51.982;5.872;2022-12-10T14:08:32;-0.40;99.90
47350;DHT22;33088;51.982;5.872;2022-12-10T14:11:00;-0.50;99.90
47350;DHT22;33088;51.982;5.872;2022-12-10T14:13:35;-0.50;99.90
47350;DHT22;33088;51.982;5.872;2022-12-10T14:16:02;-0.60;99.90
47350;DHT22;33088;51.982;5.872;2022-12-10T14:18:31;-0.60;99.90
47350;DHT22;33088;51.982;5.872;2022-12-10T14:20:57;-0.60;99.90
47350;DHT22;33088;51.982;5.872;2022-12-10T14:23:29;-0.50;99.90
47350;DHT22;33088;51.982;5.872;2022-12-10T14:25:58;-0.50;99.90
47350;DHT22;33088;51.982;5.872;2022-12-10T14:28:29;-0.60;99.90
47350;DHT22;33088;51.982;5.872;2022-12-10T14:30:55;-0.60;99.90
47350;DHT22;33088;51.982;5.872;2022-12-10T14:33:22;-0.60;99.90
47350;DHT22;33088;51.982;5.872;2022-12-10T14:35:50;-0.60;99.90
47350;DHT22;33088;51.982;5.872;2022-12-10T14:38:21;-0.70;99.90
47350;DHT22;33088;51.982;5.872;2022-12-10T14:40:48;-0.70;99.90
47350;DHT22;33088;51.982;5.872;2022-12-10T14:43:18;-0.70;99.90
47350;DHT22;33088;51.982;5.872;2022-12-10T14:45:56;-0.70;99.90
47350;DHT22;33088;51.982;5.872;2022-12-10T14:48:23;-0.70;99.90
47350;DHT22;33088;51.982;5.872;2022-12-10T14:50:50;-0.80;99.90
47350;DHT22;33088;51.982;5.872;2022-12-10T14:53:22;-0.80;99.90
47350;DHT22;33088;51.982;5.872;2022-12-10T14:55:52;-0.80;99.90
47350;DHT22;33088;51.982;5.872;2022-12-10T15:00:55;-0.70;99.90
47350;DHT22;33088;51.982;5.872;2022-12-10T15:03:27;-0.70;99.90
47350;DHT22;33088;51.982;5.872;2022-12-10T15:05:58;-0.60;99.90
47350;DHT22;33088;51.982;5.872;2022-12-10T15:08:26;-0.60;99.90
47350;DHT22;33088;51.982;5.872;2022-12-10T15:10:55;-0.60;99.90
47350;DHT22;33088;51.982;5.872;2022-12-10T15:15:50;-0.60;99.90
47350;DHT22;33088;51.982;5.872;2022-12-10T15:18:21;-0.50;99.90
47350;DHT22;33088;51.982;5.872;2022-12-10T15:20:52;-0.60;99.90
47350;DHT22;33088;51.982;5.872;2022-12-10T15:28:35;-0.60;99.90
47350;DHT22;33088;51.982;5.872;2022-12-10T15:36:59;-0.70;99.90
47350;DHT22;33088;51.982;5.872;2022-12-10T15:39:20;-0.70;99.90
47350;DHT22;33088;51.982;5.872;2022-12-10T15:41:52;-0.70;99.90
47350;DHT22;33088;51.982;5.872;2022-12-10T15:49:40;-0.80;99.90
47350;DHT22;33088;51.982;5.872;2022-12-10T15:52:12;-0.80;99.90
47350;DHT22;33088;51.982;5.872;2022-12-10T15:54:40;-0.80;99.90
47350;DHT22;33088;51.982;5.872;2022-12-10T15:57:30;-0.80;99.90
47350;DHT22;33088;51.982;5.872;2022-12-10T16:00:02;-0.70;99.90
47350;DHT22;33088;51.982;5.872;2022-12-10T16:05:33;-0.60;99.90
47350;DHT22;33088;51.982;5.872;2022-12-10T16:08:22;-0.70;99.90
47350;DHT22;33088;51.982;5.872;2022-12-10T16:10:49;-0.70;99.90
47350;DHT22;33088;51.982;5.872;2022-12-10T16:13:18;-0.70;99.90
47350;DHT22;33088;51.982;5.872;2022-12-10T16:15:53;-0.70;99.90
47350;DHT22;33088;51.982;5.872;2022-12-10T16:18:20;-0.70;99.90
47350;DHT22;33088;51.982;5.872;2022-12-10T16:20:46;-0.70;99.90
47350;DHT22;33088;51.982;5.872;2022-12-10T16:23:12;-0.70;99.90
47350;DHT22;33088;51.982;5.872;2022-12-10T16:25:40;-0.70;99.90
47350;DHT22;33088;51.982;5.872;2022-12-10T16:28:17;-0.60;99.90
47350;DHT22;33088;51.982;5.872;2022-12-10T16:30:51;-0.70;99.90
47350;DHT22;33088;51.982;5.872;2022-12-10T16:33:19;-0.70;99.90
47350;DHT22;33088;51.982;5.872;2022-12-10T16:35:46;-0.60;99.90
47350;DHT22;33088;51.982;5.872;2022-12-10T16:38:12;-0.60;99.90
47350;DHT22;33088;51.982;5.872;2022-12-10T16:40:40;-0.60;99.90
47350;DHT22;33088;51.982;5.872;2022-12-10T16:43:08;-0.60;99.90
47350;DHT22;33088;51.982;5.872;2022-12-10T16:45:38;-0.60;99.90
47350;DHT22;33088;51.982;5.872;2022-12-10T16:48:04;-0.60;99.90
47350;DHT22;33088;51.982;5.872;2022-12-10T16:50:30;-0.60;99.90
47350;DHT22;33088;51.982;5.872;2022-12-10T16:52:57;-0.60;99.90
47350;DHT22;33088;51.982;5.872;2022-12-10T16:55:25;-0.50;99.90
47350;DHT22;33088;51.982;5.872;2022-12-10T16:57:52;-0.60;99.90
47350;DHT22;33088;51.982;5.872;2022-12-10T17:00:21;-0.50;99.90
47350;DHT22;33088;51.982;5.872;2022-12-10T17:02:48;-0.50;99.90
47350;DHT22;33088;51.982;5.872;2022-12-10T17:05:22;-0.50;99.90
47350;DHT22;33088;51.982;5.872;2022-12-10T17:07:49;-0.40;99.90
47350;DHT22;33088;51.982;5.872;2022-12-10T17:10:15;-0.40;99.90
47350;DHT22;33088;51.982;5.872;2022-12-10T17:12:41;-0.40;99.90
47350;DHT22;33088;51.982;5.872;2022-12-10T17:15:12;-0.40;99.90
47350;DHT22;33088;51.982;5.872;2022-12-10T17:17:38;-0.50;99.90
47350;DHT22;33088;51.982;5.872;2022-12-10T17:20:19;-0.50;99.90
47350;DHT22;33088;51.982;5.872;2022-12-10T17:22:46;-0.40;99.90
47350;DHT22;33088;51.982;5.872;2022-12-10T17:25:11;-0.50;99.90
47350;DHT22;33088;51.982;5.872;2022-12-10T17:27:37;-0.40;99.90
47350;DHT22;33088;51.982;5.872;2022-12-10T17:30:03;-0.50;99.90
47350;DHT22;33088;51.982;5.872;2022-12-10T17:32:30;-0.40;99.90
47350;DHT22;33088;51.982;5.872;2022-12-10T17:34:57;-0.50;99.90
47350;DHT22;33088;51.982;5.872;2022-12-10T17:37:25;-0.40;99.90
47350;DHT22;33088;51.982;5.872;2022-12-10T17:39:53;-0.40;99.90
47350;DHT22;33088;51.982;5.872;2022-12-10T17:42:19;-0.20;99.90
47350;DHT22;33088;51.982;5.872;2022-12-10T17:44:44;-0.30;99.90
47350;DHT22;33088;51.982;5.872;2022-12-10T17:47:21;-0.40;99.90
47350;DHT22;33088;51.982;5.872;2022-12-10T17:49:47;-0.40;99.90